Time;durP1;ratioP1;P1;durP2;ratioP2;P2;SDS_P1;SDS_P2;PMS_P1;PMS_P2;Temp;Humidity;BMP_temperature;BMP_pressure;BME280_temperature;BME280_humidity;BME280_pressure;Samples;Min_cycle;Max_cycle;Signal;HPM_P1;HPM_P2
2023/01/02 00:00:00;;;;;;;0.10;0.10;;;;;;;;;;5043524;28;20208;-68
2023/01/02 00:02:27;;;;;;;0.63;0.47;;;;;;;;;;5065507;28;20252;-69
2023/01/02 00:04:54;;;;;;;0.83;0.57;;;;;;;;;;5043517;28;20239;-68
2023/01/02 00:07:20;;;;;;;0.47;0.47;;;;;;;;;;5065633;28;20588;-68
2023/01/02 00:09:46;;;;;;;0.10;0.10;;;;;;;;;;5043535;28;20243;-68
2023/01/02 00:12:13;;;;;;;0.17;0.17;;;;;;;;;;5065543;28;20260;-69
2023/01/02 00:14:39;;;;;;;0.10;0.10;;;;;;;;;;5043771;28;20359;-67
2023/01/02 00:17:05;;;;;;;0.13;0.13;;;;;;;;;;5064928;28;20347;-67
2023/01/02 00:19:33;;;;;;;0.10;0.10;;;;;;;;;;5043713;28;20275;-68
2023/01/02 00:22:00;;;;;;;0.10;0.10;;;;;;;;;;5063555;28;20309;-69
2023/01/02 00:24:26;;;;;;;0.10;0.10;;;;;;;;;;5045391;28;20239;-68
2023/01/02 00:26:52;;;;;;;0.10;0.10;;;;;;;;;;5061185;28;20303;-68
2023/01/02 00:29:19;;;;;;;0.10;0.10;;;;;;;;;;5047101;28;20237;-68
2023/01/02 00:31:45;;;;;;;0.10;0.10;;;;;;;;;;5059461;28;20254;-68
2023/01/02 00:34:12;;;;;;;0.10;0.10;;;;;;;;;;5049258;28;20245;-69
2023/01/02 00:36:39;;;;;;;0.40;0.40;;;;;;;;;;5057541;28;20276;-68
2023/01/02 00:39:06;;;;;;;0.10;0.10;;;;;;;;;;5050991;28;20275;-68
2023/01/02 00:41:32;;;;;;;0.77;0.77;;;;;;;;;;5055715;28;20240;-68
2023/01/02 00:43:58;;;;;;;0.10;0.10;;;;;;;;;;5052791;28;20556;-68
2023/01/02 00:46:25;;;;;;;0.13;0.13;;;;;;;;;;5053808;28;20265;-69
2023/01/02 00:48:51;;;;;;;0.37;0.37;;;;;;;;;;5054203;28;20297;-69
2023/01/02 00:51:17;;;;;;;0.10;0.10;;;;;;;;;;5052625;28;20325;-69
2023/01/02 00:53:45;;;;;;;0.30;0.30;;;;;;;;;;5060308;28;20428;-68
2023/01/02 00:56:12;;;;;;;0.10;0.10;;;;;;;;;;5053895;28;20269;-68
2023/01/02 00:58:38;;;;;;;0.10;0.10;;;;;;;;;;5061648;28;20272;-68
2023/01/02 01:01:04;;;;;;;0.10;0.10;;;;;;;;;;5051890;28;20307;-69
2023/01/02 01:03:31;;;;;;;0.10;0.10;;;;;;;;;;5063407;28;20239;-68
2023/01/02 01:05:57;;;;;;;0.10;0.10;;;;;;;;;;5049976;28;20255;-67
2023/01/02 01:08:24;;;;;;;0.10;0.10;;;;;;;;;;5064981;28;20231;-68
2023/01/02 01:10:51;;;;;;;1.70;1.60;;;;;;;;;;5048027;28;20265;-68
2023/01/02 01:13:18;;;;;;;0.10;0.10;;;;;;;;;;5067096;28;20215;-69
2023/01/02 01:15:44;;;;;;;0.10;0.10;;;;;;;;;;5046502;28;20538;-68
2023/01/02 01:18:10;;;;;;;0.67;0.50;;;;;;;;;;5068819;28;20391;-67
2023/01/02 01:20:37;;;;;;;0.40;0.37;;;;;;;;;;5044336;28;20488;-68
2023/01/02 01:23:03;;;;;;;0.10;0.10;;;;;;;;;;5070625;28;20296;-68
2023/01/02 01:25:30;;;;;;;0.10;0.10;;;;;;;;;;5042429;28;20438;-67
2023/01/02 01:27:57;;;;;;;0.57;0.57;;;;;;;;;;5072334;28;20258;-68
2023/01/02 01:30:24;;;;;;;0.67;0.67;;;;;;;;;;5040701;28;20377;-68
2023/01/02 01:32:50;;;;;;;0.10;0.10;;;;;;;;;;5073685;28;20280;-68
2023/01/02 01:35:17;;;;;;;0.10;0.10;;;;;;;;;;5038504;28;20210;-68
2023/01/02 01:37:43;;;;;;;0.10;0.10;;;;;;;;;;5075638;28;20222;-67
2023/01/02 01:40:10;;;;;;;0.10;0.10;;;;;;;;;;5036674;28;20398;-67
2023/01/02 01:42:36;;;;;;;0.10;0.10;;;;;;;;;;5077690;28;20530;-68
2023/01/02 01:45:11;;;;;;;0.10;0.10;;;;;;;;;;5046239;28;20214;-68
2023/01/02 01:47:40;;;;;;;0.20;0.20;;;;;;;;;;5034687;28;20247;-68
2023/01/02 01:50:07;;;;;;;0.20;0.20;;;;;;;;;;5046086;28;20529;-67
2023/01/02 01:52:36;;;;;;;0.10;0.10;;;;;;;;;;5034688;28;20234;-68
2023/01/02 01:55:06;;;;;;;0.10;0.10;;;;;;;;;;5045785;28;20292;-68
2023/01/02 01:57:34;;;;;;;0.10;0.10;;;;;;;;;;5034554;28;20460;-68
2023/01/02 02:00:01;;;;;;;0.10;0.10;;;;;;;;;;5045992;28;20440;-67
2023/01/02 02:02:31;;;;;;;0.10;0.10;;;;;;;;;;5067112;28;20447;-67
2023/01/02 02:04:59;;;;;;;0.20;0.20;;;;;;;;;;5045113;28;20218;-67
2023/01/02 02:07:25;;;;;;;0.00;0.00;;;;;;;;;;5067559;28;20319;-68
2023/01/02 02:09:55;;;;;;;0.63;0.63;;;;;;;;;;5045522;28;20214;-68
2023/01/02 02:12:21;;;;;;;0.20;0.20;;;;;;;;;;5067612;28;20593;-67
2023/01/02 02:14:48;;;;;;;0.10;0.10;;;;;;;;;;5045737;28;20385;-68
2023/01/02 02:17:19;;;;;;;0.10;0.10;;;;;;;;;;5067311;28;20261;-68
2023/01/02 02:20:04;;;;;;;0.10;0.10;;;;;;;;;;5045717;28;20267;-68
2023/01/02 02:23:04;;;;;;;0.10;0.10;;;;;;;;;;5067371;28;20249;-68
2023/01/02 02:25:44;;;;;;;0.33;0.33;;;;;;;;;;5041500;28;20474;-68
2023/01/02 02:28:25;;;;;;;0.10;0.10;;;;;;;;;;5067523;28;20273;-68
2023/01/02 02:30:54;;;;;;;0.10;0.10;;;;;;;;;;5041906;28;20248;-68
2023/01/02 02:33:33;;;;;;;0.10;0.10;;;;;;;;;;5064916;28;20569;-68
2023/01/02 02:36:03;;;;;;;1.00;0.77;;;;;;;;;;5048830;28;20259;-69
2023/01/02 02:38:37;;;;;;;0.10;0.10;;;;;;;;;;5062110;28;20256;-68
2023/01/02 02:41:05;;;;;;;0.10;0.10;;;;;;;;;;5049712;28;20268;-67
2023/01/02 02:43:36;;;;;;;0.10;0.10;;;;;;;;;;5061372;28;20276;-69
2023/01/02 02:46:06;;;;;;;0.10;0.10;;;;;;;;;;5049415;28;20303;-68
2023/01/02 02:48:39;;;;;;;0.10;0.10;;;;;;;;;;5061229;28;20235;-69
2023/01/02 02:51:07;;;;;;;0.10;0.10;;;;;;;;;;5050137;28;20607;-67
2023/01/02 02:53:35;;;;;;;0.10;0.10;;;;;;;;;;5060711;28;20274;-68
2023/01/02 02:56:05;;;;;;;0.10;0.10;;;;;;;;;;5048931;28;20291;-69
2023/01/02 02:58:33;;;;;;;0.27;0.27;;;;;;;;;;5061187;28;20219;-69
2023/01/02 03:01:02;;;;;;;0.10;0.10;;;;;;;;;;5048285;28;20307;-68
2023/01/02 03:03:30;;;;;;;0.10;0.10;;;;;;;;;;5061999;28;20402;-68
2023/01/02 03:06:06;;;;;;;0.10;0.10;;;;;;;;;;5045600;28;20299;-69
2023/01/02 03:08:37;;;;;;;0.10;0.10;;;;;;;;;;5062338;28;20249;-69
2023/01/02 03:11:04;;;;;;;0.10;0.10;;;;;;;;;;5049208;28;20256;-69
2023/01/02 03:13:35;;;;;;;0.10;0.10;;;;;;;;;;5061484;28;20214;-69
2023/01/02 03:16:05;;;;;;;0.10;0.10;;;;;;;;;;5048521;28;20492;-67
2023/01/02 03:18:34;;;;;;;0.10;0.10;;;;;;;;;;5060825;28;20257;-68
2023/01/02 03:21:05;;;;;;;0.97;0.97;;;;;;;;;;5048472;28;20295;-68
2023/01/02 03:23:32;;;;;;;0.73;0.60;;;;;;;;;;5060848;28;20512;-68
2023/01/02 03:25:59;;;;;;;0.50;0.50;;;;;;;;;;5047747;28;20263;-67
2023/01/02 03:28:26;;;;;;;0.20;0.20;;;;;;;;;;5062052;28;20230;-68
2023/01/02 03:30:56;;;;;;;0.10;0.10;;;;;;;;;;5046298;28;20246;-69
2023/01/02 03:33:25;;;;;;;0.10;0.10;;;;;;;;;;5062777;28;20240;-67
2023/01/02 03:35:54;;;;;;;0.10;0.10;;;;;;;;;;5045829;28;20486;-68
2023/01/02 03:38:22;;;;;;;0.10;0.10;;;;;;;;;;5063702;28;20447;-67
2023/01/02 03:40:50;;;;;;;0.10;0.10;;;;;;;;;;5045120;28;20488;-68
2023/01/02 03:43:18;;;;;;;0.10;0.10;;;;;;;;;;5064322;28;20269;-68
2023/01/02 03:45:48;;;;;;;0.10;0.10;;;;;;;;;;5043846;28;20239;-68
2023/01/02 03:48:19;;;;;;;0.10;0.10;;;;;;;;;;5065115;28;20270;-68
2023/01/02 03:50:47;;;;;;;0.43;0.43;;;;;;;;;;5043900;28;20235;-68
2023/01/02 03:53:15;;;;;;;0.10;0.10;;;;;;;;;;5064787;28;20212;-68
2023/01/02 03:55:43;;;;;;;0.10;0.10;;;;;;;;;;5042872;28;20422;-68
2023/01/02 03:58:14;;;;;;;0.43;0.43;;;;;;;;;;5066371;28;20226;-67
2023/01/02 04:00:42;;;;;;;0.13;0.13;;;;;;;;;;5042375;28;20235;-68
2023/01/02 04:03:10;;;;;;;0.10;0.10;;;;;;;;;;5066503;28;20448;-69
2023/01/02 04:05:40;;;;;;;0.10;0.10;;;;;;;;;;5041272;28;20311;-67
2023/01/02 04:08:08;;;;;;;0.10;0.10;;;;;;;;;;5066846;28;20292;-67
2023/01/02 04:10:37;;;;;;;0.10;0.10;;;;;;;;;;5040943;28;20262;-68
2023/01/02 04:13:08;;;;;;;0.10;0.10;;;;;;;;;;5067307;28;20264;-68
2023/01/02 04:15:36;;;;;;;0.10;0.10;;;;;;;;;;5040821;28;20579;-68
2023/01/02 04:18:05;;;;;;;0.10;0.10;;;;;;;;;;5067802;28;20273;-68
2023/01/02 04:20:33;;;;;;;0.10;0.10;;;;;;;;;;5039835;28;20247;-67
2023/01/02 04:23:02;;;;;;;0.10;0.10;;;;;;;;;;5068624;28;20475;-67
2023/01/02 04:25:30;;;;;;;0.10;0.10;;;;;;;;;;5038844;28;20286;-68
2023/01/02 04:27:59;;;;;;;0.20;0.20;;;;;;;;;;5072637;28;20540;-68
2023/01/02 04:30:26;;;;;;;18.67;2.33;;;;;;;;;;5042465;28;20207;-68
2023/01/02 04:32:53;;;;;;;0.10;0.10;;;;;;;;;;5074232;28;20454;-68
2023/01/02 04:35:21;;;;;;;0.10;0.10;;;;;;;;;;5040653;28;20444;-67
2023/01/02 04:37:48;;;;;;;0.40;0.20;;;;;;;;;;5075706;28;20509;-68
2023/01/02 04:40:17;;;;;;;1.03;0.60;;;;;;;;;;5038823;28;20219;-67
2023/01/02 04:42:43;;;;;;;0.60;0.60;;;;;;;;;;5076732;28;20255;-68
2023/01/02 04:45:12;;;;;;;0.10;0.10;;;;;;;;;;5037902;28;20244;-67
2023/01/02 04:47:38;;;;;;;0.10;0.10;;;;;;;;;;5078001;28;20202;-69
2023/01/02 04:50:05;;;;;;;0.10;0.10;;;;;;;;;;5047178;28;20497;-67
2023/01/02 04:52:32;;;;;;;0.10;0.10;;;;;;;;;;5035744;28;20280;-68
2023/01/02 04:54:58;;;;;;;0.10;0.10;;;;;;;;;;5047024;28;20234;-68
2023/01/02 04:57:25;;;;;;;0.10;0.10;;;;;;;;;;5068861;28;20267;-69
2023/01/02 04:59:51;;;;;;;0.10;0.10;;;;;;;;;;5047057;28;20509;-67
2023/01/02 05:02:19;;;;;;;0.47;0.47;;;;;;;;;;5068656;28;20247;-69
2023/01/02 05:04:45;;;;;;;0.10;0.10;;;;;;;;;;5046701;28;20215;-68
2023/01/02 05:07:11;;;;;;;0.10;0.10;;;;;;;;;;5068600;28;20560;-68
2023/01/02 05:09:38;;;;;;;0.10;0.10;;;;;;;;;;5046672;28;20229;-68
2023/01/02 05:12:04;;;;;;;0.20;0.20;;;;;;;;;;5067744;28;20312;-68
2023/01/02 05:14:31;;;;;;;0.23;0.23;;;;;;;;;;5047212;28;20271;-68
2023/01/02 05:16:59;;;;;;;0.10;0.10;;;;;;;;;;5066009;28;20299;-68
2023/01/02 05:19:26;;;;;;;0.10;0.10;;;;;;;;;;5048840;28;20285;-68
2023/01/02 05:24:37;;;;;;;0.10;0.10;;;;;;;;;;5046554;28;20233;-67
2023/01/02 05:27:03;;;;;;;0.10;0.10;;;;;;;;;;5067109;28;20387;-67
2023/01/02 05:29:29;;;;;;;1.70;1.70;;;;;;;;;;5047281;28;20231;-68
2023/01/02 05:31:56;;;;;;;0.20;0.20;;;;;;;;;;5065272;28;20316;-68
2023/01/02 05:34:22;;;;;;;0.10;0.10;;;;;;;;;;5049173;28;20396;-67
2023/01/02 05:36:50;;;;;;;0.63;0.63;;;;;;;;;;5063072;28;20311;-68
2023/01/02 05:39:16;;;;;;;0.10;0.10;;;;;;;;;;5050785;28;20241;-68
2023/01/02 05:41:43;;;;;;;0.10;0.10;;;;;;;;;;5061484;28;20316;-68
2023/01/02 05:44:10;;;;;;;0.10;0.10;;;;;;;;;;5052684;28;20430;-68
2023/01/02 05:46:37;;;;;;;0.10;0.10;;;;;;;;;;5059683;28;20237;-68
2023/01/02 05:49:04;;;;;;;14.83;1.80;;;;;;;;;;5054095;28;20453;-68
2023/01/02 05:51:30;;;;;;;0.10;0.10;;;;;;;;;;5057951;28;20307;-68
2023/01/02 05:53:58;;;;;;;0.10;0.10;;;;;;;;;;5055949;28;20228;-68
2023/01/02 05:56:25;;;;;;;0.30;0.30;;;;;;;;;;5056108;28;20888;-68
2023/01/02 05:58:52;;;;;;;0.10;0.10;;;;;;;;;;5057168;28;20541;-68
2023/01/02 06:01:19;;;;;;;0.10;0.10;;;;;;;;;;5054180;28;20245;-68
2023/01/02 06:03:46;;;;;;;0.10;0.10;;;;;;;;;;5059191;28;20407;-68
2023/01/02 06:06:13;;;;;;;0.20;0.20;;;;;;;;;;5052980;28;20489;-68
2023/01/02 06:08:39;;;;;;;0.10;0.10;;;;;;;;;;5060263;28;20227;-68
2023/01/02 06:11:07;;;;;;;0.10;0.10;;;;;;;;;;5050913;28;20300;-66
2023/01/02 06:13:34;;;;;;;8.93;3.10;;;;;;;;;;5061782;28;20233;-67
2023/01/02 06:16:01;;;;;;;0.10;0.10;;;;;;;;;;5049258;28;20306;-67
2023/01/02 06:18:28;;;;;;;0.10;0.10;;;;;;;;;;5062771;28;20272;-68
2023/01/02 06:20:57;;;;;;;0.10;0.10;;;;;;;;;;5047931;28;20308;-68
2023/01/02 06:23:24;;;;;;;0.00;0.00;;;;;;;;;;5063657;28;20213;-67
2023/01/02 06:25:50;;;;;;;0.17;0.17;;;;;;;;;;5046656;28;20584;-67
2023/01/02 06:28:18;;;;;;;0.93;0.93;;;;;;;;;;5065558;28;20215;-67
2023/01/02 06:30:44;;;;;;;0.80;0.80;;;;;;;;;;5045052;28;20251;-68
2023/01/02 06:33:11;;;;;;;0.00;0.00;;;;;;;;;;5067368;28;20208;-67
2023/01/02 06:35:37;;;;;;;0.10;0.10;;;;;;;;;;5042603;28;20240;-68
2023/01/02 06:38:03;;;;;;;0.23;0.23;;;;;;;;;;5069013;28;20206;-67
2023/01/02 06:40:30;;;;;;;0.20;0.20;;;;;;;;;;5040994;28;20472;-68
2023/01/02 06:42:56;;;;;;;0.10;0.10;;;;;;;;;;5070829;28;20203;-68
2023/01/02 06:45:24;;;;;;;0.10;0.10;;;;;;;;;;5038944;28;20394;-68
2023/01/02 06:47:55;;;;;;;0.10;0.10;;;;;;;;;;5072991;28;20266;-68
2023/01/02 06:50:22;;;;;;;0.10;0.10;;;;;;;;;;5037789;28;20231;-68
2023/01/02 06:52:48;;;;;;;0.10;0.10;;;;;;;;;;5073102;28;20220;-68
2023/01/02 06:55:15;;;;;;;0.87;0.87;;;;;;;;;;5036321;28;20242;-67
2023/01/02 06:57:41;;;;;;;0.33;0.33;;;;;;;;;;5074968;28;20266;-68
2023/01/02 07:00:10;;;;;;;0.83;0.83;;;;;;;;;;5040247;28;20206;-68
2023/01/02 07:02:40;;;;;;;0.50;0.50;;;;;;;;;;5075893;28;20378;-68
2023/01/02 07:05:07;;;;;;;0.20;0.20;;;;;;;;;;5043179;28;20544;-67
2023/01/02 07:07:33;;;;;;;0.40;0.40;;;;;;;;;;5075734;28;20224;-68
2023/01/02 07:10:00;;;;;;;0.10;0.10;;;;;;;;;;5044580;28;20226;-68
2023/01/02 07:12:26;;;;;;;12.23;4.13;;;;;;;;;;5066381;28;20258;-68
2023/01/02 07:14:52;;;;;;;0.10;0.10;;;;;;;;;;5044327;28;20232;-67
2023/01/02 07:17:19;;;;;;;0.10;0.10;;;;;;;;;;5066199;28;20244;-67
2023/01/02 07:19:47;;;;;;;0.10;0.10;;;;;;;;;;5044519;28;20202;-67
2023/01/02 07:22:13;;;;;;;0.93;0.93;;;;;;;;;;5066394;28;20258;-67
2023/01/02 07:24:39;;;;;;;0.10;0.10;;;;;;;;;;5044089;28;20236;-67
2023/01/02 07:27:06;;;;;;;0.10;0.10;;;;;;;;;;5065198;28;20241;-68
2023/01/02 07:29:32;;;;;;;0.10;0.10;;;;;;;;;;5044714;28;20475;-69
2023/01/02 07:31:58;;;;;;;0.10;0.10;;;;;;;;;;5063569;28;20257;-68
2023/01/02 07:34:25;;;;;;;0.10;0.10;;;;;;;;;;5046503;28;20452;-68
2023/01/02 07:36:52;;;;;;;0.10;0.10;;;;;;;;;;5061461;28;20623;-67
2023/01/02 07:39:19;;;;;;;0.10;0.10;;;;;;;;;;5048175;28;20235;-68
2023/01/02 07:41:45;;;;;;;0.10;0.10;;;;;;;;;;5059713;28;20259;-67
2023/01/02 07:44:12;;;;;;;0.10;0.10;;;;;;;;;;5049741;28;20216;-68
2023/01/02 07:46:38;;;;;;;0.10;0.10;;;;;;;;;;5057921;28;20252;-72
2023/01/02 07:49:04;;;;;;;0.10;0.10;;;;;;;;;;5051636;28;20554;-70
2023/01/02 07:51:31;;;;;;;0.10;0.10;;;;;;;;;;5055877;28;20240;-71
2023/01/02 07:53:59;;;;;;;0.10;0.10;;;;;;;;;;5053627;28;20234;-70
2023/01/02 07:56:25;;;;;;;0.23;0.23;;;;;;;;;;5054279;28;20250;-70
2023/01/02 07:58:51;;;;;;;0.10;0.10;;;;;;;;;;5055107;28;20282;-71
2023/01/02 08:01:18;;;;;;;0.10;0.10;;;;;;;;;;5051432;28;20261;-71
2023/01/02 08:03:44;;;;;;;0.10;0.10;;;;;;;;;;5056959;28;20507;-71
2023/01/02 08:06:11;;;;;;;0.10;0.10;;;;;;;;;;5050398;28;20240;-71
2023/01/02 08:08:38;;;;;;;0.10;0.10;;;;;;;;;;5058509;28;20206;-71
2023/01/02 08:11:07;;;;;;;0.10;0.10;;;;;;;;;;5048887;28;20630;-71
2023/01/02 08:13:33;;;;;;;0.10;0.10;;;;;;;;;;5059735;28;20211;-71
2023/01/02 08:16:03;;;;;;;0.10;0.10;;;;;;;;;;5047410;28;20254;-71
2023/01/02 08:18:29;;;;;;;0.10;0.10;;;;;;;;;;5060225;28;20213;-71
2023/01/02 08:20:56;;;;;;;0.10;0.10;;;;;;;;;;5046444;28;20255;-72
2023/01/02 08:23:22;;;;;;;0.10;0.10;;;;;;;;;;5062041;28;20206;-71
2023/01/02 08:25:49;;;;;;;0.10;0.10;;;;;;;;;;5044406;28;20247;-72
2023/01/02 08:28:17;;;;;;;0.20;0.20;;;;;;;;;;5063999;28;20281;-70
2023/01/02 08:30:43;;;;;;;0.10;0.10;;;;;;;;;;5042809;28;20311;-72
2023/01/02 08:33:09;;;;;;;0.10;0.10;;;;;;;;;;5065397;28;20221;-71
2023/01/02 08:35:36;;;;;;;0.10;0.10;;;;;;;;;;5040819;28;20315;-72
2023/01/02 08:38:02;;;;;;;0.20;0.20;;;;;;;;;;5067525;28;20213;-71
2023/01/02 08:40:28;;;;;;;0.10;0.10;;;;;;;;;;5038840;28;20253;-70
2023/01/02 08:42:55;;;;;;;0.10;0.10;;;;;;;;;;5069527;28;20449;-71
2023/01/02 08:45:22;;;;;;;0.10;0.10;;;;;;;;;;5036831;28;20249;-71
2023/01/02 08:47:49;;;;;;;0.10;0.10;;;;;;;;;;5071399;28;20429;-72
2023/01/02 08:50:15;;;;;;;0.10;0.10;;;;;;;;;;5035356;28;20262;-72
2023/01/02 08:52:42;;;;;;;0.10;0.10;;;;;;;;;;5072753;28;20194;-72
2023/01/02 08:55:08;;;;;;;0.10;0.10;;;;;;;;;;5033917;28;20272;-70
2023/01/02 08:57:35;;;;;;;0.10;0.10;;;;;;;;;;5074470;28;20242;-71
2023/01/02 09:00:01;;;;;;;0.10;0.10;;;;;;;;;;5042965;28;20241;-72
2023/01/02 09:02:29;;;;;;;0.10;0.10;;;;;;;;;;5064984;28;20258;-72
2023/01/02 09:04:55;;;;;;;0.10;0.10;;;;;;;;;;5042894;28;20274;-71
2023/01/02 09:07:22;;;;;;;0.10;0.10;;;;;;;;;;5064979;28;20254;-72
2023/01/02 09:09:48;;;;;;;0.10;0.10;;;;;;;;;;5042890;28;20297;-72
2023/01/02 09:12:14;;;;;;;0.10;0.10;;;;;;;;;;5065367;28;20248;-72
2023/01/02 09:14:41;;;;;;;0.10;0.10;;;;;;;;;;5046864;28;20559;-72
2023/01/02 09:17:07;;;;;;;0.27;0.27;;;;;;;;;;5068548;28;20443;-72
2023/01/02 09:19:35;;;;;;;0.10;0.10;;;;;;;;;;5046825;28;20271;-73
2023/01/02 09:22:02;;;;;;;0.10;0.10;;;;;;;;;;5066867;28;20248;-71
2023/01/02 09:24:29;;;;;;;0.10;0.10;;;;;;;;;;5047732;28;20402;-72
2023/01/02 09:26:55;;;;;;;0.50;0.50;;;;;;;;;;5064994;28;20583;-72
2023/01/02 09:29:21;;;;;;;0.10;0.10;;;;;;;;;;5049399;28;20211;-72
2023/01/02 09:31:48;;;;;;;0.10;0.10;;;;;;;;;;5063101;28;20312;-71
2023/01/02 09:34:14;;;;;;;0.10;0.10;;;;;;;;;;5051516;28;20561;-71
2023/01/02 09:36:42;;;;;;;0.10;0.10;;;;;;;;;;5061200;28;20487;-71
2023/01/02 09:39:08;;;;;;;0.10;0.10;;;;;;;;;;5053152;28;20207;-71
2023/01/02 09:41:36;;;;;;;0.10;0.10;;;;;;;;;;5059420;28;20272;-71
2023/01/02 09:44:04;;;;;;;0.30;0.30;;;;;;;;;;5054493;28;20212;-73
2023/01/02 09:46:33;;;;;;;0.10;0.10;;;;;;;;;;5058262;28;20248;-72
2023/01/02 09:49:00;;;;;;;0.20;0.20;;;;;;;;;;5055098;28;20238;-71
2023/01/02 09:51:27;;;;;;;0.00;0.00;;;;;;;;;;5056799;28;20305;-72
2023/01/02 09:53:55;;;;;;;0.10;0.10;;;;;;;;;;5057076;28;20401;-73
2023/01/02 09:56:24;;;;;;;0.10;0.10;;;;;;;;;;5054756;28;20262;-71
2023/01/02 09:58:51;;;;;;;0.10;0.10;;;;;;;;;;5058183;28;20239;-73
2023/01/02 10:01:21;;;;;;;0.10;0.10;;;;;;;;;;5054476;28;20254;-74
2023/01/02 10:03:52;;;;;;;0.10;0.10;;;;;;;;;;5058079;28;20244;-75
2023/01/02 10:06:21;;;;;;;0.10;0.10;;;;;;;;;;5054648;28;20510;-76
2023/01/02 10:08:51;;;;;;;0.10;0.10;;;;;;;;;;5057550;28;20211;-71
2023/01/02 10:11:36;;;;;;;0.10;0.10;;;;;;;;;;5054222;28;20498;-71
2023/01/02 10:14:05;;;;;;;0.10;0.10;;;;;;;;;;5053997;28;20234;-71
2023/01/02 10:16:35;;;;;;;0.10;0.10;;;;;;;;;;5057630;28;20239;-71
2023/01/02 10:19:03;;;;;;;0.00;0.00;;;;;;;;;;5053717;28;20208;-71
2023/01/02 10:21:31;;;;;;;0.20;0.20;;;;;;;;;;5056766;28;20255;-71
2023/01/02 10:24:01;;;;;;;0.10;0.10;;;;;;;;;;5054357;28;20218;-71
2023/01/02 10:26:31;;;;;;;0.00;0.00;;;;;;;;;;5056211;28;20249;-71
2023/01/02 10:29:02;;;;;;;0.10;0.10;;;;;;;;;;5054801;28;20237;-71
2023/01/02 10:31:31;;;;;;;0.10;0.10;;;;;;;;;;5056326;28;20304;-71
2023/01/02 10:33:58;;;;;;;0.10;0.10;;;;;;;;;;5055390;28;20583;-71
2023/01/02 10:36:26;;;;;;;0.10;0.10;;;;;;;;;;5055030;28;20302;-71
2023/01/02 10:38:53;;;;;;;0.10;0.10;;;;;;;;;;5056211;28;20204;-71
2023/01/02 10:41:19;;;;;;;0.10;0.10;;;;;;;;;;5054117;28;20626;-71
2023/01/02 10:43:48;;;;;;;0.10;0.10;;;;;;;;;;5057568;28;20214;-72
2023/01/02 10:46:15;;;;;;;0.10;0.10;;;;;;;;;;5052562;28;20243;-71
2023/01/02 10:48:42;;;;;;;0.10;0.10;;;;;;;;;;5058977;28;20292;-71
2023/01/02 10:51:13;;;;;;;0.10;0.10;;;;;;;;;;5050868;28;20312;-71
2023/01/02 10:53:39;;;;;;;0.10;0.10;;;;;;;;;;5059062;28;20262;-72
2023/01/02 10:56:08;;;;;;;0.10;0.10;;;;;;;;;;5049810;28;20251;-70
2023/01/02 10:58:35;;;;;;;0.10;0.10;;;;;;;;;;5060369;28;20207;-73
2023/01/02 11:01:05;;;;;;;0.10;0.10;;;;;;;;;;5048883;28;20240;-73
2023/01/02 11:03:33;;;;;;;0.57;0.57;;;;;;;;;;5060891;28;20235;-72
2023/01/02 11:06:00;;;;;;;0.00;0.00;;;;;;;;;;5048440;28;20497;-72
2023/01/02 11:08:34;;;;;;;0.30;0.30;;;;;;;;;;5062378;28;20410;-71
2023/01/02 11:11:01;;;;;;;0.10;0.10;;;;;;;;;;5048166;28;20549;-72
2023/01/02 11:13:33;;;;;;;0.10;0.10;;;;;;;;;;5062220;28;20208;-72
2023/01/02 11:16:00;;;;;;;0.22;0.22;;;;;;;;;;5048216;28;20307;-72
2023/01/02 11:18:29;;;;;;;0.10;0.10;;;;;;;;;;5062225;28;20208;-71
2023/01/02 11:21:02;;;;;;;0.03;0.03;;;;;;;;;;5047093;28;20566;-71
2023/01/02 11:23:30;;;;;;;0.00;0.00;;;;;;;;;;5061507;28;20227;-71
2023/01/02 11:25:56;;;;;;;0.10;0.10;;;;;;;;;;5046826;28;20261;-71
2023/01/02 11:28:25;;;;;;;0.32;0.32;;;;;;;;;;5063111;28;20244;-71
2023/01/02 11:30:52;;;;;;;0.10;0.10;;;;;;;;;;5045514;28;20249;-71
2023/01/02 11:33:21;;;;;;;0.10;0.10;;;;;;;;;;5064084;28;20388;-71
2023/01/02 11:35:48;;;;;;;0.10;0.10;;;;;;;;;;5044108;28;20242;-70
2023/01/02 11:38:17;;;;;;;0.73;0.73;;;;;;;;;;5064774;28;20540;-71
2023/01/02 11:40:51;;;;;;;0.60;0.60;;;;;;;;;;5043342;28;20272;-71
2023/01/02 11:46:19;;;;;;;0.10;0.10;;;;;;;;;;5006084;28;20459;-71
2023/01/02 11:48:46;;;;;;;0.00;0.00;;;;;;;;;;5049947;28;20218;-72
2023/01/02 11:51:15;;;;;;;0.10;0.10;;;;;;;;;;5050495;28;20261;-70
2023/01/02 11:53:44;;;;;;;0.10;0.10;;;;;;;;;;5058108;28;20208;-71
2023/01/02 11:56:15;;;;;;;0.10;0.10;;;;;;;;;;5050479;28;20356;-72
2023/01/02 11:58:47;;;;;;;0.10;0.10;;;;;;;;;;5057538;28;20271;-71
2023/01/02 12:01:18;;;;;;;0.68;0.68;;;;;;;;;;5050433;28;20481;-70
2023/01/02 12:03:44;;;;;;;0.03;0.03;;;;;;;;;;5057756;28;20530;-72
2023/01/02 12:06:15;;;;;;;0.10;0.10;;;;;;;;;;5050408;28;20471;-71
2023/01/02 12:08:46;;;;;;;0.10;0.10;;;;;;;;;;5057387;28;20204;-71
2023/01/02 12:11:17;;;;;;;6.13;5.65;;;;;;;;;;5050507;28;20528;-71
2023/01/02 12:13:55;;;;;;;0.10;0.10;;;;;;;;;;5057133;28;20263;-71
2023/01/02 12:16:26;;;;;;;0.03;0.03;;;;;;;;;;5053087;28;20238;-71
2023/01/02 12:19:02;;;;;;;0.00;0.00;;;;;;;;;;5054390;28;20199;-71
2023/01/02 12:21:33;;;;;;;0.90;0.90;;;;;;;;;;5054539;28;20513;-71
2023/01/02 12:24:19;;;;;;;0.10;0.10;;;;;;;;;;5053074;28;20195;-71
2023/01/02 12:26:48;;;;;;;0.10;0.10;;;;;;;;;;5059136;28;20263;-71
2023/01/02 12:29:21;;;;;;;0.10;0.10;;;;;;;;;;5048667;28;20238;-71
2023/01/02 12:31:56;;;;;;;0.52;0.47;;;;;;;;;;5059650;28;20239;-71
2023/01/02 12:34:30;;;;;;;0.55;0.55;;;;;;;;;;5046224;28;20265;-71
2023/01/02 12:37:00;;;;;;;0.20;0.20;;;;;;;;;;5062004;28;20636;-70
2023/01/02 12:39:43;;;;;;;0.10;0.10;;;;;;;;;;5044604;28;20196;-70
2023/01/02 12:42:16;;;;;;;0.17;0.17;;;;;;;;;;5065153;28;20257;-70
2023/01/02 12:44:47;;;;;;;0.10;0.10;;;;;;;;;;5043204;28;20264;-71
2023/01/02 12:47:30;;;;;;;0.10;0.10;;;;;;;;;;5065714;28;20252;-70
2023/01/02 12:50:02;;;;;;;0.10;0.10;;;;;;;;;;5047315;28;20440;-71
2023/01/02 12:52:44;;;;;;;0.10;0.10;;;;;;;;;;5068910;28;20251;-71
2023/01/02 12:55:16;;;;;;;0.10;0.10;;;;;;;;;;5037629;28;20296;-71
2023/01/02 12:57:46;;;;;;;0.22;0.22;;;;;;;;;;5076668;28;20227;-71
2023/01/02 13:00:21;;;;;;;0.05;0.05;;;;;;;;;;5038704;28;20432;-71
2023/01/02 13:02:59;;;;;;;0.32;0.32;;;;;;;;;;5075288;28;20384;-71
2023/01/02 13:05:27;;;;;;;0.10;0.10;;;;;;;;;;5041804;28;20291;-71
2023/01/02 13:07:55;;;;;;;0.10;0.10;;;;;;;;;;5073455;28;20445;-71
2023/01/02 13:10:24;;;;;;;0.10;0.10;;;;;;;;;;5040427;28;20272;-71
2023/01/02 13:12:51;;;;;;;0.73;0.73;;;;;;;;;;5074041;28;20192;-71
2023/01/02 13:15:20;;;;;;;0.50;0.50;;;;;;;;;;5039379;28;20258;-71
2023/01/02 13:17:52;;;;;;;0.10;0.10;;;;;;;;;;5074702;28;20221;-71
2023/01/02 13:20:29;;;;;;;0.10;0.10;;;;;;;;;;5036878;28;20242;-71
2023/01/02 13:23:01;;;;;;;0.22;0.22;;;;;;;;;;5075259;28;20229;-71
2023/01/02 13:25:30;;;;;;;0.10;0.10;;;;;;;;;;5041808;28;20590;-72
2023/01/02 13:27:57;;;;;;;0.10;0.10;;;;;;;;;;5072203;28;20214;-71
2023/01/02 13:30:39;;;;;;;0.52;0.52;;;;;;;;;;5040778;28;20553;-71
2023/01/02 13:33:16;;;;;;;0.10;0.10;;;;;;;;;;5066709;28;20232;-70
2023/01/02 13:35:42;;;;;;;0.10;0.10;;;;;;;;;;5046046;28;20562;-72
2023/01/02 13:38:12;;;;;;;1.90;1.85;;;;;;;;;;5068461;28;20193;-71
2023/01/02 13:40:40;;;;;;;0.10;0.10;;;;;;;;;;5044587;28;20567;-71
2023/01/02 13:43:07;;;;;;;0.10;0.10;;;;;;;;;;5069338;28;20244;-70
2023/01/02 13:45:36;;;;;;;0.77;0.77;;;;;;;;;;5043112;28;20243;-71
2023/01/02 13:48:04;;;;;;;0.10;0.10;;;;;;;;;;5069955;28;20510;-72
2023/01/02 13:50:31;;;;;;;0.10;0.10;;;;;;;;;;5041880;28;20240;-73
2023/01/02 13:53:05;;;;;;;0.17;0.17;;;;;;;;;;5071512;28;20231;-72
2023/01/02 13:55:33;;;;;;;0.10;0.10;;;;;;;;;;5041834;28;20302;-68
2023/01/02 13:58:23;;;;;;;2.47;1.98;;;;;;;;;;5071500;28;20501;-68
2023/01/02 14:00:52;;;;;;;0.10;0.10;;;;;;;;;;5041335;28;20239;-68
2023/01/02 14:03:33;;;;;;;0.10;0.10;;;;;;;;;;5066205;28;20433;-68
2023/01/02 14:06:02;;;;;;;0.10;0.10;;;;;;;;;;5049578;28;20554;-68
2023/01/02 14:08:29;;;;;;;0.10;0.10;;;;;;;;;;5063187;28;20212;-67
2023/01/02 14:10:57;;;;;;;0.30;0.30;;;;;;;;;;5048459;28;20238;-68
2023/01/02 14:13:26;;;;;;;6.82;6.47;;;;;;;;;;5064253;28;20535;-68
2023/01/02 14:16:05;;;;;;;0.07;0.07;;;;;;;;;;5047390;28;20242;-67
2023/01/02 14:18:31;;;;;;;1.73;1.63;;;;;;;;;;5062507;28;20235;-68
2023/01/02 14:20:58;;;;;;;0.10;0.10;;;;;;;;;;5048632;28;20256;-68
2023/01/02 14:23:26;;;;;;;0.10;0.10;;;;;;;;;;5063588;28;20268;-68
2023/01/02 14:25:52;;;;;;;0.10;0.10;;;;;;;;;;5046801;28;20310;-68
2023/01/02 14:28:22;;;;;;;0.03;0.03;;;;;;;;;;5065431;28;20287;-68
2023/01/02 14:30:49;;;;;;;0.10;0.10;;;;;;;;;;5045886;28;20595;-68
2023/01/02 14:33:18;;;;;;;0.10;0.10;;;;;;;;;;5066363;28;20530;-67
2023/01/02 14:35:49;;;;;;;0.10;0.10;;;;;;;;;;5044792;28;20257;-68
2023/01/02 14:38:17;;;;;;;0.10;0.10;;;;;;;;;;5065796;28;20195;-68
2023/01/02 14:40:44;;;;;;;0.10;0.10;;;;;;;;;;5044851;28;20572;-68
2023/01/02 14:43:31;;;;;;;0.10;0.10;;;;;;;;;;5067176;28;20270;-70
2023/01/02 14:46:06;;;;;;;0.10;0.10;;;;;;;;;;5048422;28;20648;-70
2023/01/02 14:48:35;;;;;;;0.10;0.10;;;;;;;;;;5061271;28;20261;-70
2023/01/02 14:51:02;;;;;;;0.10;0.10;;;;;;;;;;5048911;28;20492;-71
2023/01/02 14:53:31;;;;;;;0.10;0.10;;;;;;;;;;5061665;28;20205;-71
2023/01/02 14:56:01;;;;;;;0.10;0.10;;;;;;;;;;5047591;28;20239;-70